createdAt,value
2022-12-19T00:00:10.465Z,1.47
2022-12-19T00:03:02.622Z,1.46
2022-12-19T00:05:29.816Z,1.44
2022-12-19T00:07:57.250Z,1.45
2022-12-19T00:10:26.011Z,1.42
2022-12-19T00:12:53.171Z,1.43
2022-12-19T00:15:20.160Z,1.43
2022-12-19T00:17:47.355Z,1.41
2022-12-19T00:20:15.955Z,1.39
2022-12-19T00:22:46.416Z,1.42
2022-12-19T00:25:13.455Z,1.40
2022-12-19T00:27:41.639Z,1.39
2022-12-19T00:30:09.934Z,1.38
2022-12-19T00:32:38.025Z,1.40
2022-12-19T00:35:05.436Z,1.40
2022-12-19T00:37:35.093Z,1.38
2022-12-19T00:40:04.452Z,1.37
2022-12-19T00:42:31.608Z,1.38
2022-12-19T00:44:58.560Z,1.38
2022-12-19T00:47:26.823Z,1.38
2022-12-19T00:49:53.816Z,1.37
2022-12-19T00:52:21.961Z,1.36
2022-12-19T00:54:50.571Z,1.35
2022-12-19T00:57:19.888Z,1.33
2022-12-19T00:59:47.024Z,1.33
2022-12-19T01:02:14.332Z,1.33
2022-12-19T01:04:41.994Z,1.33
2022-12-19T01:07:13.008Z,1.31
2022-12-19T01:09:40.109Z,1.31
2022-12-19T01:12:29.881Z,1.32
2022-12-19T01:15:04.481Z,1.30
2022-12-19T01:17:37.780Z,1.30
2022-12-19T01:20:21.368Z,1.29
2022-12-19T01:22:59.921Z,1.29
2022-12-19T01:25:28.322Z,1.29
2022-12-19T01:27:57.310Z,1.28
2022-12-19T01:30:25.212Z,1.28
2022-12-19T01:32:53.808Z,1.27
2022-12-19T01:35:21.673Z,1.26
2022-12-19T01:38:07.627Z,1.26
2022-12-19T01:40:36.893Z,1.26
2022-12-19T01:43:04.931Z,1.24
2022-12-19T01:45:36.603Z,1.25
2022-12-19T01:48:15.842Z,1.24
2022-12-19T01:51:04.026Z,1.23
2022-12-19T01:53:49.753Z,1.23
2022-12-19T01:56:29.216Z,1.22
2022-12-19T01:59:06.503Z,1.21
2022-12-19T02:01:47.689Z,1.20
2022-12-19T02:04:26.272Z,1.21
2022-12-19T02:06:59.461Z,1.21
2022-12-19T02:09:33.460Z,1.20
2022-12-19T02:12:01.103Z,1.20
2022-12-19T02:14:29.630Z,1.19
2022-12-19T02:17:32.841Z,1.19
2022-12-19T02:20:25.137Z,1.18
2022-12-19T02:23:00.968Z,1.18
2022-12-19T02:25:46.899Z,1.16
2022-12-19T02:28:50.246Z,1.15
2022-12-19T02:31:48.054Z,1.13
2022-12-19T02:34:44.689Z,1.11
2022-12-19T02:37:48.119Z,1.11
2022-12-19T02:40:39.286Z,1.11
2022-12-19T02:43:10.388Z,1.10
2022-12-19T02:45:39.827Z,1.09
2022-12-19T02:48:09.262Z,1.09
2022-12-19T02:50:45.341Z,1.09
2022-12-19T02:53:16.179Z,1.08
2022-12-19T02:56:10.381Z,1.07
2022-12-19T02:59:12.904Z,1.07
2022-12-19T03:02:07.866Z,1.05
2022-12-19T03:05:02.819Z,1.04
2022-12-19T03:08:05.992Z,1.06
2022-12-19T03:10:43.643Z,1.05
2022-12-19T03:13:50.306Z,1.03
2022-12-19T03:16:17.716Z,1.01
2022-12-19T03:18:45.479Z,1.01
2022-12-19T03:21:37.027Z,1.01
2022-12-19T03:24:08.007Z,0.99
2022-12-19T03:26:43.377Z,0.98
2022-12-19T03:29:59.590Z,0.95
2022-12-19T03:32:30.501Z,0.95
2022-12-19T03:35:04.447Z,0.95
2022-12-19T03:37:39.499Z,0.95
2022-12-19T03:40:17.315Z,0.95
2022-12-19T03:43:07.700Z,0.94
2022-12-19T03:45:44.737Z,0.94
2022-12-19T03:48:38.754Z,0.93
2022-12-19T03:51:29.133Z,0.94
2022-12-19T03:54:08.590Z,0.92
2022-12-19T03:56:44.667Z,0.91
2022-12-19T03:59:22.652Z,0.92
2022-12-19T04:01:53.911Z,0.92
2022-12-19T04:04:24.038Z,0.91
2022-12-19T04:06:52.988Z,0.90
2022-12-19T04:09:23.954Z,0.88
2022-12-19T04:12:00.198Z,0.90
2022-12-19T04:14:33.499Z,0.90
2022-12-19T04:17:31.172Z,0.87
2022-12-19T04:20:06.241Z,0.86
2022-12-19T04:23:07.894Z,0.81
2022-12-19T04:25:45.365Z,0.79
2022-12-19T04:28:26.996Z,0.82
2022-12-19T04:30:55.002Z,0.84
2022-12-19T04:33:22.149Z,0.83
2022-12-19T04:35:49.488Z,0.80
2022-12-19T04:38:16.767Z,0.81
2022-12-19T04:40:44.291Z,0.82
2022-12-19T04:43:11.176Z,0.82
2022-12-19T04:45:41.995Z,0.82
2022-12-19T04:48:09.749Z,0.82
2022-12-19T04:50:37.266Z,0.81
2022-12-19T04:53:05.499Z,0.79
2022-12-19T04:55:33.215Z,0.79
2022-12-19T04:58:06.967Z,0.80
2022-12-19T05:00:34.591Z,0.78
2022-12-19T05:03:01.768Z,0.77
2022-12-19T05:05:29.755Z,0.77
2022-12-19T05:07:56.646Z,0.75
2022-12-19T05:10:24.082Z,0.76
2022-12-19T05:12:51.121Z,0.76
2022-12-19T05:15:18.531Z,0.73
2022-12-19T05:17:45.427Z,0.76
2022-12-19T05:20:12.820Z,0.73
2022-12-19T05:22:39.775Z,0.74
2022-12-19T05:25:08.109Z,0.73
2022-12-19T05:27:35.274Z,0.73
2022-12-19T05:30:02.693Z,0.73
2022-12-19T05:32:32.219Z,0.72
2022-12-19T05:34:59.444Z,0.70
2022-12-19T05:37:26.606Z,0.70
2022-12-19T05:39:53.883Z,0.70
2022-12-19T05:42:21.059Z,0.69
2022-12-19T05:44:48.296Z,0.68
2022-12-19T05:47:15.199Z,0.67
2022-12-19T05:49:42.526Z,0.68
2022-12-19T05:52:09.471Z,0.66
2022-12-19T05:54:37.099Z,0.66
2022-12-19T05:57:04.295Z,0.65
2022-12-19T05:59:31.603Z,0.66
2022-12-19T06:01:58.557Z,0.65
2022-12-19T06:04:26.922Z,0.64
2022-12-19T06:06:54.052Z,0.64
2022-12-19T06:09:21.291Z,0.62
2022-12-19T06:11:48.578Z,0.60
2022-12-19T06:14:15.909Z,0.61
2022-12-19T06:16:42.900Z,0.60
2022-12-19T06:19:10.179Z,0.59
2022-12-19T06:21:42.242Z,0.57
2022-12-19T06:24:15.139Z,0.54
2022-12-19T06:26:42.279Z,0.56
2022-12-19T06:29:09.742Z,0.51
2022-12-19T06:31:37.000Z,0.53
2022-12-19T06:34:04.303Z,0.50
2022-12-19T06:36:31.606Z,0.55
2022-12-19T06:38:59.312Z,0.53
2022-12-19T06:41:45.891Z,0.53
2022-12-19T06:44:17.418Z,0.54
2022-12-19T06:46:44.720Z,0.55
2022-12-19T06:49:12.422Z,0.54
2022-12-19T06:51:39.500Z,0.53
2022-12-19T06:54:06.834Z,0.51
2022-12-19T06:56:37.056Z,0.48
2022-12-19T06:59:07.101Z,0.49
2022-12-19T07:01:50.557Z,0.46
2022-12-19T07:04:26.666Z,0.47
2022-12-19T07:06:54.313Z,0.47
2022-12-19T07:09:22.427Z,0.46
2022-12-19T07:11:49.574Z,0.47
2022-12-19T07:14:16.754Z,0.46
2022-12-19T07:16:43.873Z,0.45
2022-12-19T07:19:12.452Z,0.42
2022-12-19T07:21:40.261Z,0.43
2022-12-19T07:24:08.908Z,0.43
2022-12-19T07:26:36.259Z,0.42
2022-12-19T07:29:04.510Z,0.41
2022-12-19T07:31:31.525Z,0.39
2022-12-19T07:33:59.260Z,0.37
2022-12-19T07:36:26.546Z,0.39
2022-12-19T07:38:53.799Z,0.37
2022-12-19T07:41:20.847Z,0.38
2022-12-19T07:43:48.282Z,0.36
2022-12-19T07:46:15.326Z,0.36
2022-12-19T07:48:42.861Z,0.35
2022-12-19T07:51:09.897Z,0.35
2022-12-19T07:53:37.162Z,0.35
2022-12-19T07:56:04.255Z,0.33
2022-12-19T07:58:31.822Z,0.34
2022-12-19T08:01:03.463Z,0.34
2022-12-19T08:03:33.379Z,0.34
2022-12-19T08:06:06.745Z,0.32
2022-12-19T08:08:35.303Z,0.31
2022-12-19T08:11:11.049Z,0.30
2022-12-19T08:13:44.645Z,0.30
2022-12-19T08:16:14.406Z,0.30
2022-12-19T08:18:41.714Z,0.29
2022-12-19T08:21:10.764Z,0.27
2022-12-19T08:23:41.305Z,0.27
2022-12-19T08:26:15.376Z,0.26
2022-12-19T08:28:43.410Z,0.23
2022-12-19T08:31:16.840Z,0.22
2022-12-19T08:33:44.454Z,0.23
2022-12-19T08:36:15.106Z,0.23
2022-12-19T08:38:42.454Z,0.23
2022-12-19T08:41:10.282Z,0.21
2022-12-19T08:43:38.335Z,0.20
2022-12-19T08:46:06.254Z,0.20
2022-12-19T08:48:34.299Z,0.20
2022-12-19T08:51:05.661Z,0.18
2022-12-19T08:53:36.699Z,0.17
2022-12-19T08:56:13.932Z,0.18
2022-12-19T08:58:42.335Z,0.17
2022-12-19T09:01:15.180Z,0.16
2022-12-19T09:04:19.096Z,0.16
2022-12-19T09:06:30.028Z,0.15
2022-12-19T09:09:00.198Z,0.13
2022-12-19T09:11:28.313Z,0.12
2022-12-19T09:13:57.999Z,0.14
2022-12-19T09:16:28.366Z,0.12
2022-12-19T09:18:58.777Z,0.12
2022-12-19T09:21:31.887Z,0.10
2022-12-19T09:24:07.134Z,0.10
2022-12-19T09:26:35.785Z,0.10
2022-12-19T09:29:05.028Z,0.11
2022-12-19T09:31:39.516Z,0.11
2022-12-19T09:34:06.830Z,0.11
2022-12-19T09:36:34.508Z,0.12
2022-12-19T09:39:02.186Z,0.12
2022-12-19T09:42:13.812Z,0.11
2022-12-19T09:45:31.799Z,0.09
2022-12-19T09:48:01.562Z,0.09
2022-12-19T09:50:41.173Z,0.12
2022-12-19T09:53:39.187Z,0.10
2022-12-19T09:56:15.794Z,0.09
2022-12-19T09:59:08.548Z,0.09
2022-12-19T10:01:56.204Z,0.11
2022-12-19T10:04:28.110Z,0.09
2022-12-19T10:07:11.272Z,0.08
2022-12-19T10:12:25.380Z,0.08
2022-12-19T10:13:12.944Z,0.09
2022-12-19T10:16:03.759Z,0.10
2022-12-19T10:18:57.055Z,0.10
2022-12-19T10:22:18.354Z,0.10
2022-12-19T10:25:12.076Z,0.09
2022-12-19T10:27:59.183Z,0.11
2022-12-19T10:30:36.518Z,0.09
2022-12-19T10:33:49.964Z,0.08
2022-12-19T10:36:17.407Z,0.08
2022-12-19T10:39:22.429Z,0.07
2022-12-19T10:41:58.731Z,0.06
2022-12-19T10:44:54.082Z,0.05
2022-12-19T10:48:00.532Z,0.07
2022-12-19T10:50:30.717Z,0.06
2022-12-19T11:26:14.601Z,0.12
2022-12-19T11:29:32.821Z,0.14
2022-12-19T11:32:42.859Z,0.15
2022-12-19T11:35:24.270Z,0.15
2022-12-19T11:38:06.653Z,0.16
2022-12-19T11:40:48.561Z,0.18
2022-12-19T11:43:45.420Z,0.19
2022-12-19T11:46:26.095Z,0.19
2022-12-19T11:49:10.027Z,0.18
2022-12-19T11:52:03.188Z,0.20
2022-12-19T11:54:36.519Z,0.19
2022-12-19T11:57:03.978Z,0.20
2022-12-19T11:59:36.355Z,0.22
2022-12-19T12:02:18.702Z,0.21
2022-12-19T12:05:26.598Z,0.20
2022-12-19T12:10:07.729Z,0.23
2022-12-19T12:18:47.805Z,0.23
2022-12-19T12:28:51.555Z,0.25
2022-12-19T12:31:01.887Z,0.24
2022-12-19T12:31:39.983Z,0.26
2022-12-19T12:31:43.766Z,0.25
2022-12-19T12:32:02.998Z,0.28
2022-12-19T12:32:04.344Z,0.27
2022-12-19T12:35:42.534Z,0.27
2022-12-19T12:40:53.570Z,0.30
2022-12-19T12:43:35.963Z,0.31
2022-12-19T12:46:12.886Z,0.33
2022-12-19T12:48:57.181Z,0.35
2022-12-19T12:51:26.560Z,0.34
2022-12-19T12:54:07.734Z,0.33
2022-12-19T12:56:37.166Z,0.34
2022-12-19T12:59:26.488Z,0.35
2022-12-19T13:01:59.918Z,0.35
2022-12-19T13:04:43.408Z,0.36
2022-12-19T13:07:30.463Z,0.37
2022-12-19T13:10:13.015Z,0.39
2022-12-19T13:13:17.374Z,0.39
2022-12-19T13:15:47.230Z,0.41
2022-12-19T13:18:37.826Z,0.39
2022-12-19T13:21:08.896Z,0.41
2022-12-19T13:23:36.136Z,0.41
2022-12-19T13:26:04.183Z,0.42
2022-12-19T13:28:31.423Z,0.44
2022-12-19T13:31:18.480Z,0.41
2022-12-19T13:33:51.941Z,0.43
2022-12-19T13:39:50.089Z,0.44
2022-12-19T13:40:20.332Z,0.50
2022-12-19T13:43:25.817Z,0.49
2022-12-19T13:46:29.213Z,0.43
2022-12-19T13:49:12.310Z,0.37
2022-12-19T13:51:48.755Z,0.44
2022-12-19T13:54:50.453Z,0.44
2022-12-19T13:57:29.057Z,0.46
2022-12-19T14:00:08.155Z,0.46
2022-12-19T14:02:46.327Z,0.46
2022-12-19T14:05:44.534Z,0.48
2022-12-19T14:08:25.175Z,0.47
2022-12-19T14:11:43.068Z,0.48
2022-12-19T14:14:29.638Z,0.47
2022-12-19T14:17:13.440Z,0.43
2022-12-19T14:19:45.958Z,0.44
2022-12-19T14:22:25.171Z,0.47
2022-12-19T14:24:54.440Z,0.48
2022-12-19T14:28:17.072Z,0.48
2022-12-19T14:30:34.932Z,0.49
2022-12-19T14:33:43.766Z,0.49
2022-12-19T14:36:15.204Z,0.47
2022-12-19T14:39:23.171Z,0.50
2022-12-19T14:42:04.950Z,0.53
2022-12-19T14:51:25.113Z,0.52
2022-12-19T14:54:04.575Z,0.52
2022-12-19T14:54:28.280Z,0.51
2022-12-19T14:54:50.653Z,0.53
2022-12-19T14:59:46.233Z,0.50
2022-12-19T15:02:32.571Z,0.54
2022-12-19T15:05:14.062Z,0.58
2022-12-19T15:07:49.598Z,0.61
2022-12-19T15:11:00.652Z,0.63
2022-12-19T15:14:53.595Z,0.61
2022-12-19T15:16:29.022Z,0.63
2022-12-19T15:19:04.491Z,0.58
2022-12-19T15:21:32.183Z,0.60
2022-12-19T15:23:59.118Z,0.59
2022-12-19T15:26:34.697Z,0.61
2022-12-19T15:29:06.787Z,0.64
2022-12-19T15:31:41.344Z,0.62
2022-12-19T15:34:41.601Z,0.59
2022-12-19T15:37:17.007Z,0.55
2022-12-19T15:39:45.249Z,0.55
2022-12-19T15:42:27.149Z,0.55
2022-12-19T15:44:58.112Z,0.55
2022-12-19T15:47:37.131Z,0.53
2022-12-19T15:50:28.376Z,0.53
2022-12-19T15:52:59.483Z,0.52
2022-12-19T15:55:30.583Z,0.51
2022-12-19T15:58:06.162Z,0.49
2022-12-19T16:00:36.528Z,0.53
2022-12-19T16:05:52.230Z,0.58
2022-12-19T16:08:25.200Z,0.55
2022-12-19T16:11:01.884Z,0.52
2022-12-19T16:13:36.392Z,0.50
2022-12-19T16:16:09.204Z,0.52
2022-12-19T16:18:40.601Z,0.52
2022-12-19T16:21:17.706Z,0.51
2022-12-19T16:23:44.955Z,0.53
2022-12-19T16:26:34.389Z,0.53
2022-12-19T16:29:02.402Z,0.51
2022-12-19T16:31:29.639Z,0.51
2022-12-19T16:33:57.287Z,0.49
2022-12-19T16:36:24.399Z,0.48
2022-12-19T16:38:51.807Z,0.46
2022-12-19T16:41:25.131Z,0.50
2022-12-19T16:43:53.029Z,0.50
2022-12-19T16:46:23.710Z,0.47
2022-12-19T16:48:51.132Z,0.48
2022-12-19T16:51:24.132Z,0.47
2022-12-19T16:53:54.494Z,0.47
2022-12-19T16:56:38.538Z,0.48
2022-12-19T16:59:20.952Z,0.46
2022-12-19T17:01:49.118Z,0.46
2022-12-19T17:04:21.573Z,0.46
2022-12-19T17:06:50.560Z,0.46
2022-12-19T17:09:23.304Z,0.46
2022-12-19T17:11:59.782Z,0.46
2022-12-19T17:14:34.438Z,0.45
2022-12-19T17:17:01.691Z,0.43
2022-12-19T17:19:38.573Z,0.41
2022-12-19T17:22:18.676Z,0.44
2022-12-19T17:24:48.337Z,0.44
2022-12-19T17:27:17.342Z,0.45
2022-12-19T17:29:45.547Z,0.43
2022-12-19T17:32:23.280Z,0.43
2022-12-19T17:34:52.665Z,0.40
2022-12-19T17:37:19.812Z,0.41
2022-12-19T17:39:48.393Z,0.41
2022-12-19T17:42:24.643Z,0.41
2022-12-19T17:44:52.245Z,0.40
2022-12-19T17:47:20.943Z,0.39
2022-12-19T17:49:49.515Z,0.39
2022-12-19T17:52:19.844Z,0.39
2022-12-19T17:54:47.302Z,0.39
2022-12-19T17:57:16.528Z,0.42
2022-12-19T17:59:46.512Z,0.40
2022-12-19T18:02:25.121Z,0.40
2022-12-19T18:04:53.949Z,0.37
2022-12-19T18:07:21.253Z,0.37
2022-12-19T18:09:48.953Z,0.37
2022-12-19T18:12:16.165Z,0.37
2022-12-19T18:14:43.526Z,0.36
2022-12-19T18:17:23.841Z,0.37
2022-12-19T18:19:51.783Z,0.34
2022-12-19T18:22:18.679Z,0.33
2022-12-19T18:24:46.099Z,0.33
2022-12-19T18:27:14.130Z,0.29
2022-12-19T18:29:41.449Z,0.31
2022-12-19T18:32:19.298Z,0.32
2022-12-19T18:34:46.757Z,0.33
2022-12-19T18:37:15.897Z,0.30
2022-12-19T18:39:43.211Z,0.29
2022-12-19T18:42:20.615Z,0.30
2022-12-19T18:44:48.044Z,0.29
2022-12-19T18:47:23.474Z,0.30
2022-12-19T18:49:52.244Z,0.30
2022-12-19T18:52:19.212Z,0.29
2022-12-19T18:54:46.451Z,0.31
2022-12-19T18:57:14.528Z,0.32
2022-12-19T18:59:41.806Z,0.31
2022-12-19T19:02:41.828Z,0.29
2022-12-19T19:05:16.989Z,0.28
2022-12-19T19:07:44.896Z,0.27
2022-12-19T19:10:41.790Z,0.27
2022-12-19T19:13:13.012Z,0.27
2022-12-19T19:15:57.462Z,0.23
2022-12-19T19:18:29.800Z,0.22
2022-12-19T19:21:01.273Z,0.24
2022-12-19T19:23:56.709Z,0.24
2022-12-19T19:26:24.205Z,0.27
2022-12-19T19:28:52.685Z,0.22
2022-12-19T19:31:26.528Z,0.22
2022-12-19T19:34:02.939Z,0.21
2022-12-19T19:36:35.858Z,0.23
2022-12-19T19:39:04.554Z,0.21
2022-12-19T19:41:34.134Z,0.22
2022-12-19T19:44:02.327Z,0.22
2022-12-19T19:46:29.652Z,0.22
2022-12-19T19:48:57.155Z,0.22
2022-12-19T19:51:24.840Z,0.22
2022-12-19T19:53:51.964Z,0.22
2022-12-19T19:56:19.416Z,0.23
2022-12-19T19:58:46.534Z,0.21
2022-12-19T20:01:14.500Z,0.20
2022-12-19T20:03:42.968Z,0.22
2022-12-19T20:06:11.057Z,0.23
2022-12-19T20:08:40.051Z,0.23
2022-12-19T20:11:10.462Z,0.23
2022-12-19T20:13:38.487Z,0.24
2022-12-19T20:16:12.675Z,0.25
2022-12-19T20:18:45.925Z,0.25
2022-12-19T20:21:14.025Z,0.26
2022-12-19T20:23:43.267Z,0.27
2022-12-19T20:26:16.244Z,0.29
2022-12-19T20:28:49.148Z,0.28
2022-12-19T20:31:23.497Z,0.28
2022-12-19T20:33:53.065Z,0.27
2022-12-19T20:36:21.608Z,0.27
2022-12-19T20:38:49.413Z,0.30
2022-12-19T20:41:17.984Z,0.29
2022-12-19T20:43:45.440Z,0.29
2022-12-19T20:46:17.794Z,0.30
2022-12-19T20:48:46.863Z,0.29
2022-12-19T20:51:16.175Z,0.29
2022-12-19T20:53:43.497Z,0.29
2022-12-19T20:56:18.030Z,0.29
2022-12-19T20:58:46.387Z,0.31
2022-12-19T21:01:22.589Z,0.30
2022-12-19T21:03:50.550Z,0.30
2022-12-19T21:06:20.567Z,0.31
2022-12-19T21:08:47.956Z,0.32
2022-12-19T21:11:15.921Z,0.33
2022-12-19T21:13:44.561Z,0.31
2022-12-19T21:16:17.638Z,0.34
2022-12-19T21:18:47.199Z,0.35
2022-12-19T21:21:20.124Z,0.33
2022-12-19T21:23:47.634Z,0.32
2022-12-19T21:26:15.186Z,0.35
2022-12-19T21:28:43.008Z,0.33
2022-12-19T21:31:23.500Z,0.33
2022-12-19T21:33:54.199Z,0.34
2022-12-19T21:36:24.085Z,0.35
2022-12-19T21:38:56.268Z,0.35
2022-12-19T21:41:24.017Z,0.37
2022-12-19T21:43:55.438Z,0.36
2022-12-19T21:46:26.842Z,0.35
2022-12-19T21:48:56.463Z,0.35
2022-12-19T21:51:28.658Z,0.33
2022-12-19T21:54:00.434Z,0.34
2022-12-19T21:56:32.075Z,0.34
2022-12-19T21:59:03.287Z,0.35
2022-12-19T22:01:31.739Z,0.34
2022-12-19T22:04:02.102Z,0.35
2022-12-19T22:06:32.408Z,0.35
2022-12-19T22:09:00.986Z,0.34
2022-12-19T22:11:30.168Z,0.33
2022-12-19T22:14:00.667Z,0.35
2022-12-19T22:16:29.352Z,0.35
2022-12-19T22:18:56.789Z,0.34
2022-12-19T22:21:25.541Z,0.35
2022-12-19T22:23:57.517Z,0.36
2022-12-19T22:26:27.652Z,0.36
2022-12-19T22:28:56.861Z,0.38
2022-12-19T22:31:30.087Z,0.42
2022-12-19T22:34:01.435Z,0.40
2022-12-19T22:36:31.902Z,0.42
2022-12-19T22:39:02.042Z,0.42
2022-12-19T22:41:30.309Z,0.42
2022-12-19T22:43:57.360Z,0.40
2022-12-19T22:46:28.401Z,0.36
2022-12-19T22:48:58.703Z,0.35
2022-12-19T22:51:28.416Z,0.36
2022-12-19T22:53:56.375Z,0.34
2022-12-19T22:56:28.015Z,0.35
2022-12-19T22:58:59.937Z,0.36
2022-12-19T23:01:32.424Z,0.35
2022-12-19T23:04:02.410Z,0.35
2022-12-19T23:06:33.485Z,0.35
2022-12-19T23:09:01.566Z,0.37
2022-12-19T23:11:34.082Z,0.38
2022-12-19T23:14:03.633Z,0.39
2022-12-19T23:16:30.893Z,0.40
2022-12-19T23:18:58.331Z,0.42
2022-12-19T23:21:26.530Z,0.42
2022-12-19T23:23:55.700Z,0.42
2022-12-19T23:26:26.455Z,0.42
2022-12-19T23:29:05.394Z,0.41
2022-12-19T23:39:18.564Z,0.42
2022-12-19T23:41:45.661Z,0.41
2022-12-19T23:44:13.301Z,0.43
2022-12-19T23:46:40.240Z,0.44
2022-12-19T23:49:07.948Z,0.44
2022-12-19T23:51:35.151Z,0.44
2022-12-19T23:54:02.584Z,0.45
2022-12-19T23:56:32.491Z,0.46
2022-12-19T23:59:00.297Z,0.44
